CCGS Louis S. St-Laurent — CGBN — position and weather

sailwx.info

Track history (hours):
 
Tides and Currents Weather Stations Pressure Air Temp Water Temp Dewpoint Dewpoint Depression Visibility Wind Speed Wind Dir Waves Ship Positions

Oceanographic research ship CCGS Louis S. St-Laurent (Canada)

Detailed information on ship capabilities available from ARCUS's ALIAS (Arctic Logistics Information and Support) project.

Last reported at 2017-Mar-29 12:00 UTC. Time now 2017-Mar-29 13:09 UTC.
Position N 46°48' W 071°12'.

Length 119.63 m; beam 24.38 m; draft 9.9 m.

MMSI: 316165000.

Wind from 110 at 1 knots

Barometer 1019.6 mb
Air temperature 1.1 ° C
Dewpoint -0.5 ° C

Date/timePositionNaut miles runAvg speedWind from/ knotsBaromVisibWave heightAir tempDewpointWater temp
2017-Mar-29 12:00N 46°48' W 071°12'0 0.0 110 / 11019.6 1.1-0.5
2017-Mar-29 11:00N 46°48' W 071°12'0 0.0 120 / 11019.7 1.0 0.1
2017-Mar-29 10:00N 46°48' W 071°12'0 0.0 330 / 11019.6 0.1-0.1
2017-Mar-29 09:00N 46°48' W 071°12'0 0.0 010 / 21019.3 1.2 0.2
2017-Mar-29 08:00N 46°48' W 071°12'0 0.0 030 / 31019.2 1.4 0.1
2017-Mar-29 07:00N 46°48' W 071°12'0 0.0 030 / 51019.1 0.4-0.4
2017-Mar-29 06:00N 46°48' W 071°12'0 0.0 020 / 11018.9 1.5-0.0
2017-Mar-29 05:00N 46°48' W 071°12'0 0.0 020 / 11018.8 2.0 0.2
2017-Mar-29 04:00N 46°48' W 071°12'0 0.0 020 / 11018.6 1.7 0.1
2017-Mar-29 03:00N 46°48' W 071°12'0 0.0 010 / 11018.5 2.0 0.1
2017-Mar-29 02:00N 46°48' W 071°12'0 0.0 030 / 21018.6 1.5-0.2
2017-Mar-29 01:00N 46°48' W 071°12'0 0.0 040 / 31018.2 1.3-0.1
2017-Mar-29 00:00N 46°48' W 071°12'0 0.0 030 / 31017.5 1.4-0.2
2017-Mar-28 23:00N 46°48' W 071°12'0 0.0 020 / 21016.9 1.7 0.4
2017-Mar-28 22:00N 46°48' W 071°12'0 0.0 040 / 31016.3 1.6 0.5
2017-Mar-28 21:00N 46°48' W 071°12'0 0.0 030 / 31015.8 1.5 0.8
2017-Mar-28 20:00N 46°48' W 071°12'0 0.0 030 / 31015.1 1.3 0.9
2017-Mar-28 19:00N 46°48' W 071°12'0 0.0 040 / 31015.0 1.1 0.6
2017-Mar-28 18:00N 46°48' W 071°12'0 0.0 040 / 41014.9 1.4 0.5
2017-Mar-28 17:00N 46°48' W 071°12'0 0.0 040 / 31015.0 1.6 0.6
2017-Mar-28 16:00N 46°48' W 071°12'0 0.0 040 / 41015.1 1.4 0.5
2017-Mar-28 15:00N 46°48' W 071°12'0 0.0 040 / 41015.3 1.6 0.5
2017-Mar-28 14:00N 46°48' W 071°12'0 0.0 040 / 41015.3 1.2 0.4
2017-Mar-28 13:00N 46°48' W 071°12'0 0.0 030 / 21015.4 1.5 0.5
2017-Mar-28 12:00N 46°48' W 071°12'0 0.0 020 / 21015.4 1.3 0.1
2017-Mar-28 11:00N 46°48' W 071°12'0 0.0 030 / 31015.3 0.8 0.1
2017-Mar-28 10:00N 46°48' W 071°12'0 0.0 040 / 31015.1 0.7-0.1
2017-Mar-28 09:00N 46°48' W 071°12'0 0.0 040 / 31015.3 0.7-0.2
2017-Mar-28 07:00N 46°48' W 071°12'0 0.0 030 / 21015.9 0.5-0.1
2017-Mar-28 06:00N 46°48' W 071°12'0 0.0 030 / 31016.3 0.4-0.2
2017-Mar-28 05:00N 46°48' W 071°12'0 0.0 030 / 21016.7 0.4-0.1
2017-Mar-28 04:00N 46°48' W 071°12'0 0.0 040 / 41016.9 0.1-0.0
2017-Mar-28 03:00N 46°48' W 071°12'0 0.0 040 / 31017.3 -0.0-0.1
2017-Mar-28 02:00N 46°48' W 071°12'0 0.0 040 / 31017.7 -0.0-0.1
2017-Mar-28 01:00N 46°48' W 071°12'0 0.0 040 / 41017.7 -0.1-0.1
2017-Mar-28 00:00N 46°48' W 071°12'0 0.0 040 / 31017.8 -0.1-0.2
2017-Mar-27 23:00N 46°48' W 071°12'0 0.0 030 / 31017.8 -0.1-0.2
2017-Mar-27 22:00N 46°48' W 071°12'0 0.0 030 / 31018.0 -0.0-0.1
2017-Mar-27 21:00N 46°48' W 071°12'0 0.0 040 / 41018.2 -0.1-0.2
2017-Mar-27 20:00N 46°48' W 071°12'0 0.0 040 / 31018.7 -0.2-0.3
2017-Mar-27 19:00N 46°48' W 071°12'0 0.0 030 / 31019.4 -0.1-0.6
2017-Mar-27 18:00N 46°48' W 071°12'0 0.0 030 / 41020.0 -0.2-1.2
2017-Mar-27 17:00N 46°48' W 071°12'0 0.0 030 / 31020.6 -0.1-1.2
2017-Mar-27 16:00N 46°48' W 071°12'0 0.0 030 / 31021.2 -0.5-1.5
2017-Mar-27 15:00N 46°48' W 071°12'0 0.0 030 / 21021.7 -0.5-1.2
2017-Mar-27 14:00N 46°48' W 071°12'0 0.0 020 / 21022.4 -0.4-1.1
2017-Mar-27 13:00N 46°48' W 071°12'0 0.0 030 / 31022.9 -0.7-1.7
2017-Mar-27 11:00N 46°48' W 071°12'0 0.0 010 / 21023.8 -0.9-2.5
2017-Mar-27 10:00N 46°48' W 071°12'0 0.0 030 / 41024.2 -1.7-3.2
2017-Mar-27 09:00N 46°48' W 071°12'0 0.0 040 / 41025.0 -2.1-3.6
2017-Mar-27 08:00N 46°48' W 071°12'0 0.0 020 / 31025.9 -2.0-2.7
2017-Mar-27 07:00N 46°48' W 071°12'0 0.0 030 / 31026.9 -1.9-3.4
2017-Mar-27 06:00N 46°48' W 071°12'0 0.0 050 / 21027.5 -0.3-7.4
2017-Mar-27 05:00N 46°48' W 071°12'0 0.0 110 / 51027.3 -0.9-7.0
2017-Mar-27 04:00N 46°48' W 071°12'0 0.0 040 / 31027.8 -0.5-5.6
2017-Mar-27 03:00N 46°48' W 071°12'0 0.0 030 / 31028.4 -0.7-6.8
2017-Mar-27 02:00N 46°48' W 071°12'0 0.0 030 / 31029.2 -0.7-6.7
2017-Mar-27 01:00N 46°48' W 071°12'0 0.0 020 / 21030.3 -0.8-8.0
2017-Mar-27 00:00N 46°48' W 071°12'0 0.0 020 / 31030.5 -1.5-7.5
2017-Mar-26 23:00N 46°48' W 071°12'0 0.0 040 / 41030.7 -1.7-8.2
2017-Mar-26 22:00N 46°48' W 071°12'0 0.0 040 / 41031.0 -1.1-7.2
2017-Mar-26 21:00N 46°48' W 071°12'0 0.0 030 / 21031.9 1.1-6.5
2017-Mar-26 20:00N 46°48' W 071°12'0 0.0 030 / 31032.3 1.0-7.4
2017-Mar-26 19:00N 46°48' W 071°12'0 0.0 010 / 21033.5 1.9-7.3
2017-Mar-26 18:00N 46°48' W 071°12'0 0.0 030 / 21034.4 1.4-9.2
2017-Mar-26 17:00N 46°48' W 071°12'0 0.0 040 / 21035.4 0.3-11.1
2017-Mar-26 16:00N 46°48' W 071°12'0 0.0 040 / 31036.3 -1.3-11.3
2017-Mar-26 15:00N 46°48' W 071°12'0 0.0 010 / 11037.3 -1.1-10.8
2017-Mar-26 14:00N 46°48' W 071°12'0 0.0 070 / 11037.7 -2.6-11.5
2017-Mar-26 13:00N 46°48' W 071°12'0 0.0 070 / 11037.7 -3.6-11.7
2017-Mar-26 12:00N 46°48' W 071°12'0 0.0 020 / 41037.7 -6.3-13.3
2017-Mar-26 11:00N 46°48' W 071°12'0 0.0 020 / 51036.9 -6.8-14.1
2017-Mar-26 10:00N 46°48' W 071°12'0 0.0 030 / 31036.5 -5.7-13.7
2017-Mar-26 09:00N 46°48' W 071°12'0 0.0 010 / 31035.6 -4.6-14.7
2017-Mar-26 08:00N 46°48' W 071°12'0 0.0 020 / 41035.5 -5.0-15.8
2017-Mar-26 07:00N 46°48' W 071°12'0 0.0 1034.8 -4.8-13.8
2017-Mar-26 06:00N 46°48' W 071°12'0 0.0 020 / 61034.4 -4.7-14.8
2017-Mar-26 05:00N 46°48' W 071°12'0 0.0 030 / 31034.5 -2.6-12.9
2017-Mar-26 04:00N 46°48' W 071°12'0 0.0 030 / 61034.1 -2.8-14.3
2017-Mar-26 03:00N 46°48' W 071°12'0 0.0 010 / 101033.7 -2.3-14.4
2017-Mar-26 02:00N 46°48' W 071°12'0 0.0 030 / 31033.3 -0.3-12.3
2017-Mar-26 01:00N 46°48' W 071°12'0 0.0 060 / 11032.3 0.3-12.4
2017-Mar-26 00:00N 46°48' W 071°12'0 0.0 020 / 31031.1 0.9-10.3
2017-Mar-25 23:00N 46°48' W 071°12'0 0.0 110 / 11029.6 1.2-9.9
2017-Mar-25 22:00N 46°48' W 071°12'0 0.0 030 / 11028.3 3.0-5.8
2017-Mar-25 21:00N 46°48' W 071°12'0 0.0 030 / 31027.5 2.6-7.2
2017-Mar-25 20:00N 46°48' W 071°12'0 0.0 040 / 31027.3 3.0-8.2
2017-Mar-25 19:00N 46°48' W 071°12'0 0.0 030 / 21027.1 2.8-7.0
2017-Mar-25 18:00N 46°48' W 071°12'0 0.0 030 / 31027.5 2.4-9.0
2017-Mar-25 17:00N 46°48' W 071°12'0 0.0 030 / 21027.9 3.0-7.5
2017-Mar-25 16:00N 46°48' W 071°12'0 0.0 030 / 11028.0 3.3-7.2
2017-Mar-25 15:00N 46°48' W 071°12'0 0.0 040 / 21027.8 2.3-10.4
2017-Mar-25 13:00N 46°48' W 071°12'0 0.0 340 / 71026.0 -0.9-9.7
2017-Mar-25 12:00N 46°48' W 071°12'0 0.0 340 / 91024.8 -1.0-8.3
2017-Mar-25 11:00N 46°48' W 071°12'0 0.0 350 / 121023.3 -0.4-6.8
2017-Mar-25 10:00N 46°48' W 071°12'0 0.0 250 / 51021.6 -0.7-2.2
2017-Mar-25 09:00N 46°48' W 071°12'0 0.0 240 / 71020.5 -0.6-2.2
2017-Mar-25 08:00N 46°48' W 071°12'0 0.0 240 / 81019.9 -0.5-2.0
2017-Mar-25 07:00N 46°48' W 071°12'0 0.0 250 / 61019.5 -0.4-2.0
2017-Mar-25 06:00N 46°48' W 071°12'0 0.0 240 / 61019.2 -0.4-2.1
2017-Mar-25 05:00N 46°48' W 071°12'0 0.0 240 / 61019.0 -0.4-2.2
2017-Mar-25 04:00N 46°48' W 071°12'0 0.0 230 / 41018.7 -0.4-2.4
2017-Mar-25 03:00N 46°48' W 071°12'0 0.0 260 / 41018.7 -0.5-2.2
2017-Mar-25 02:00N 46°48' W 071°12'0 0.0 240 / 41018.5 -0.6-2.0
2017-Mar-25 01:00N 46°48' W 071°12'0 0.0 230 / 31018.1 -0.6-2.0
2017-Mar-25 00:00N 46°48' W 071°12'0 0.0 240 / 21017.9 -0.7-2.2
2017-Mar-24 23:00N 46°48' W 071°12'0 0.0 250 / 21017.7 -0.7-2.7
2017-Mar-24 22:00N 46°48' W 071°12'0 0.0 240 / 11017.7 -0.7-2.8
2017-Mar-24 21:00N 46°48' W 071°12'0 0.0 320 / 11018.0 -0.4-2.2
2017-Mar-24 20:00N 46°48' W 071°12'0 0.0 020 / 31018.2 -0.4-2.9
2017-Mar-24 18:00N 46°48' W 071°12'0 0.0 010 / 11021.0 -1.3-3.5
2017-Mar-24 17:00N 46°48' W 071°12'0 0.0 1021.9 -1.8-4.4
2017-Mar-24 16:00N 46°48' W 071°12'0 0.0 340 / 41022.3 -2.5-5.0
2017-Mar-24 15:00N 46°48' W 071°12'0 0.0 330 / 31024.1 -3.1-6.2
2017-Mar-24 14:00N 46°48' W 071°12'0 0.0 250 / 21025.0 -2.8-10.7
2017-Mar-24 12:00N 46°48' W 071°12'0 0.0 300 / 11027.1 -3.5-9.7
2017-Mar-24 11:00N 46°48' W 071°12'0 0.0 270 / 11027.0 -4.5-10.7
2017-Mar-24 10:00N 46°48' W 071°12'0 0.0 240 / 31027.6 -4.9-12.0
2017-Mar-24 09:00N 46°48' W 071°12'0 0.0 240 / 21028.5 -4.7-10.9
2017-Mar-24 08:00N 46°48' W 071°12'0 0.0 230 / 41029.1 -5.0-12.0
2017-Mar-24 07:00N 46°48' W 071°12'0 0.0 280 / 21028.8 -5.2-13.3
2017-Mar-24 06:00N 46°48' W 071°12'0 0.0 180 / 41028.8 -5.3-13.4
2017-Mar-24 05:00N 46°48' W 071°12'0 0.0 220 / 31030.0 -4.1-13.3
2017-Mar-24 04:00N 46°48' W 071°12'0 0.0 170 / 51030.7 -5.2-14.4
2017-Mar-24 03:00N 46°48' W 071°12'0 0.0 180 / 61031.2 -4.9-14.8
2017-Mar-24 02:00N 46°48' W 071°12'0 0.0 220 / 61031.0 -3.9-14.3
2017-Mar-24 01:00N 46°48' W 071°12'0 0.0 250 / 81030.8 -3.4-13.7
2017-Mar-24 00:00N 46°48' W 071°12'0 0.0 260 / 71030.5 -2.2-16.1
2017-Mar-23 23:00N 46°48' W 071°12'0 0.0 270 / 81029.9 -2.1-15.7
2017-Mar-23 22:00N 46°48' W 071°12'0 0.0 260 / 71029.7 -1.5-16.6
2017-Mar-23 21:00N 46°48' W 071°12'0 0.0 270 / 81029.7 -1.9-17.0
2017-Mar-23 20:00N 46°48' W 071°12'0 0.0 300 / 101029.6 -2.7-17.6
2017-Mar-23 19:00N 46°48' W 071°12'0 0.0 280 / 101029.5 -3.3-18.9
2017-Mar-23 18:00N 46°48' W 071°12'0 0.0 250 / 91029.7 -4.4-18.5
2017-Mar-23 17:00N 46°48' W 071°12'0 0.0 250 / 91030.2 -5.4-17.3
2017-Mar-23 16:00N 46°48' W 071°12'0 0.0 220 / 111030.5 -6.7-18.0
2017-Mar-23 15:00N 46°48' W 071°12'0 0.0 220 / 91031.1 -8.9-17.7
2017-Mar-23 14:00N 46°48' W 071°12'0 0.0 240 / 91031.4 -10.3-18.5
2017-Mar-23 13:00N 46°48' W 071°12'0 0.0 240 / 91031.1 -11.0-18.7
2017-Mar-23 12:00N 46°48' W 071°12'0 0.0 260 / 71030.4 -11.8-18.2
2017-Mar-23 11:00N 46°48' W 071°12'0 0.0 240 / 81029.9 -12.1-18.7
2017-Mar-23 10:00N 46°48' W 071°12'0 0.0 280 / 81029.1 -11.4-19.0
2017-Mar-23 09:00N 46°48' W 071°12'0 0.0 280 / 81028.3 -11.1-18.9
2017-Mar-23 08:00N 46°48' W 071°12'0 0.0 270 / 61027.9 -10.8-19.2
2017-Mar-23 07:00N 46°48' W 071°12'0 0.0 300 / 71027.7 -10.4-19.3
2017-Mar-23 06:00N 46°48' W 071°12'0 0.0 320 / 101027.3 -10.0-18.5
2017-Mar-23 05:00N 46°48' W 071°12'0 0.0 300 / 121027.1 -9.9-19.5
2017-Mar-23 04:00N 46°48' W 071°12'0 0.0 290 / 91027.2 -9.8-19.8
2017-Mar-23 03:00N 46°48' W 071°12'0 0.0 300 / 81026.9 -9.4-19.3
2017-Mar-23 02:00N 46°48' W 071°12'0 0.0 280 / 71026.9 -9.2-19.9
2017-Mar-23 01:00N 46°48' W 071°12'0 0.0 300 / 61026.3 -8.9-19.1
2017-Mar-23 00:00N 46°48' W 071°12'0 0.0 320 / 61025.3 -8.5-19.0
2017-Mar-22 23:00N 46°48' W 071°12'0 0.0 330 / 91023.9 -7.9-19.3
2017-Mar-22 22:00N 46°48' W 071°12'0 0.0 330 / 101022.9 -6.9-18.2
2017-Mar-22 21:00N 46°48' W 071°12'0 0.0 330 / 121021.7 -6.8-18.9
2017-Mar-22 20:00N 46°48' W 071°12'0 0.0 320 / 91020.9 -6.7-18.3
2017-Mar-22 19:00N 46°48' W 071°12'0 0.0 320 / 121020.0 -6.8-19.0
2017-Mar-22 18:00N 46°48' W 071°12'0 0.0 310 / 121019.4 -7.2-18.0
2017-Mar-22 17:00N 46°48' W 071°12'0 0.0 320 / 101019.0 -7.5-18.2
2017-Mar-22 16:00N 46°48' W 071°12'0 0.0 330 / 131018.7 -8.3-18.3
2017-Mar-22 15:00N 46°48' W 071°12'0 0.0 350 / 121017.9 -9.3-17.3
2017-Mar-22 14:00N 46°48' W 071°12'0 0.0 340 / 111016.7 -10.2-16.0
2017-Mar-22 13:00N 46°48' W 071°12'0 0.0 340 / 111015.2 -10.2-14.6
2017-Mar-22 12:00N 46°48' W 071°12'0 0.0 330 / 91013.5 -10.5-12.6
2017-Mar-22 11:00N 46°48' W 071°12'0 0.0 320 / 71011.6 -9.9-11.8
2017-Mar-22 10:00N 46°48' W 071°12'0 0.0 330 / 71009.2 -8.6-10.1
2017-Mar-22 09:00N 46°48' W 071°12'0 0.0 360 / 171006.0 -6.2-10.0
2017-Mar-22 08:00N 46°48' W 071°12'0 0.0 360 / 121004.9 -3.2-8.7
2017-Mar-22 07:00N 46°48' W 071°12'0 0.0 290 / 41004.3 1.1 0.4
2017-Mar-22 06:00N 46°48' W 071°12'0 0.0 210 / 41004.9 1.6-0.2
2017-Mar-22 05:00N 46°48' W 071°12'0 0.0 220 / 41005.5 1.1-0.7
2017-Mar-22 04:00N 46°48' W 071°12'0 0.0 220 / 31005.7 1.7-0.9
2017-Mar-22 03:00N 46°48' W 071°12'0 0.0 230 / 61006.7 2.5-1.0
2017-Mar-22 02:00N 46°48' W 071°12'0 0.0 230 / 71007.0 3.3-1.4
2017-Mar-22 01:00N 46°48' W 071°12'0 0.0 240 / 61007.2 4.2-2.6
2017-Mar-22 00:00N 46°48' W 071°12'0 0.0 230 / 41007.0 4.3-4.2
2017-Mar-21 23:00N 46°48' W 071°12'0 0.0 070 / 11006.4 5.3-3.4
2017-Mar-21 22:00N 46°48' W 071°12'0 0.0 110 / 11006.4 5.2-5.7
2017-Mar-21 21:00N 46°48' W 071°12'0 0.0 040 / 11006.7 7.9-6.6
2017-Mar-21 20:00N 46°48' W 071°12'0 0.0 030 / 21007.2 7.3-4.2
2017-Mar-21 19:00N 46°48' W 071°12'0 0.0 040 / 21008.1 6.7-4.8
2017-Mar-21 18:00N 46°48' W 071°12'0 0.0 070 / 11009.0 7.4-4.0
2017-Mar-21 17:00N 46°48' W 071°12'0 0.0 030 / 21009.8 7.0-4.1
2017-Mar-21 16:00N 46°48' W 071°12'0 0.0 100 / 11010.5 5.9-1.6
2017-Mar-21 15:00N 46°48' W 071°12'0 0.0 090 / 11011.4 5.4-1.4
2017-Mar-21 14:00N 46°48' W 071°12'0 0.0 100 / 11011.9 4.3-1.2
2017-Mar-21 12:00N 46°48' W 071°12'0 0.0 240 / 51012.0 2.3-3.5
2017-Mar-21 11:00N 46°48' W 071°12'0 0.0 230 / 81011.9 1.7-3.8
2017-Mar-21 10:00N 46°48' W 071°12'0 0.0 240 / 71012.0 1.7-3.9
2017-Mar-21 09:00N 46°48' W 071°12'0 0.0 220 / 61011.9 2.0-4.5
2017-Mar-21 08:00N 46°48' W 071°12'0 0.0 220 / 71012.1 2.0-4.3
2017-Mar-21 07:00N 46°48' W 071°12'0 0.0 220 / 51012.4 2.6-4.9
2017-Mar-21 06:00N 46°48' W 071°12'0 0.0 220 / 71012.7 2.2-4.8
2017-Mar-21 05:00N 46°48' W 071°12'0 0.0 230 / 61013.1 2.8-5.4
2017-Mar-21 04:00N 46°48' W 071°12'0 0.0 250 / 41013.5 3.1-5.7
2017-Mar-21 03:00N 46°48' W 071°12'0 0.0 230 / 61014.0 3.3-6.2
2017-Mar-21 02:00N 46°48' W 071°12'0 0.0 230 / 71014.4 3.6-6.8
2017-Mar-21 01:00N 46°48' W 071°12'0 0.0 230 / 61014.7 4.1-6.9
2017-Mar-21 00:00N 46°48' W 071°12'0 0.0 230 / 51015.1 4.5-7.2
2017-Mar-20 23:00N 46°48' W 071°12'0 0.0 240 / 61015.4 4.8-6.5
2017-Mar-20 22:00N 46°48' W 071°12'0 0.0 230 / 31015.8 5.2-5.6
2017-Mar-20 21:00N 46°48' W 071°12'0 0.0 080 / 11016.5 2.8-2.0
2017-Mar-20 20:00N 46°48' W 071°12'0 0.0 040 / 21017.4 3.3-2.5
2017-Mar-20 19:00N 46°48' W 071°12'0 0.0 040 / 21018.2 3.2-2.4
2017-Mar-20 17:00N 46°48' W 071°12'0 0.0 030 / 21020.4 3.4-2.7
2017-Mar-20 16:00N 46°48' W 071°12'0 0.0 050 / 11021.5 2.9-3.4
2017-Mar-20 15:00N 46°48' W 071°12'0 0.0 040 / 11022.5 1.8-4.8
2017-Mar-20 14:00N 46°48' W 071°12'0 0.0 130 / 11022.9 0.3-6.5
2017-Mar-20 13:00N 46°48' W 071°12'0 0.0 120 / 11023.3 -1.3-7.2
2017-Mar-20 12:00N 46°48' W 071°12'0 0.0 320 / 11023.4 -2.1-6.9
2017-Mar-20 11:00N 46°48' W 071°12'0 0.0 230 / 31023.2 -4.5-6.9
2017-Mar-20 10:00N 46°48' W 071°12'0 0.0 290 / 11023.1 -3.9-5.7
2017-Mar-20 08:00N 46°48' W 071°12'0 0.0 1023.0 -3.2-5.6
2017-Mar-20 07:00N 46°48' W 071°12'0 0.0 270 / 11023.2 -3.3-4.5
2017-Mar-20 06:00N 46°48' W 071°12'0 0.0 330 / 11023.5 -2.3-5.4
2017-Mar-20 05:00N 46°48' W 071°12'0 0.0 1024.1 -1.9-5.4
2017-Mar-20 04:00N 46°48' W 071°12'0 0.0 330 / 11024.6 -1.1-4.3
2017-Mar-20 03:00N 46°48' W 071°12'0 0.0 360 / 11024.9 -0.3-3.2
2017-Mar-20 02:00N 46°48' W 071°12'0 0.0 110 / 11025.1 -0.5-3.7
2017-Mar-20 01:00N 46°48' W 071°12'0 0.0 070 / 11025.0 0.4-3.9
2017-Mar-20 00:00N 46°48' W 071°12'0 0.0 110 / 11024.7 1.3-6.6
2017-Mar-19 23:00N 46°48' W 071°12'0 0.0 040 / 11025.0 2.8-2.7
2017-Mar-19 22:00N 46°48' W 071°12'0 0.0 030 / 11025.0 5.0-5.1
2017-Mar-19 21:00N 46°48' W 071°12'0 0.0 050 / 21024.9 4.5-2.6
2017-Mar-19 20:00N 46°48' W 071°12'0 0.0 080 / 11025.4 4.8-2.0
2017-Mar-19 19:00N 46°48' W 071°12'0 0.0 020 / 11026.0 5.8-3.7
2017-Mar-19 18:00N 46°48' W 071°12'0 0.0 360 / 21026.9 3.8-3.1
2017-Mar-19 17:00N 46°48' W 071°12'0 0.0 1028.3 3.8-3.4
2017-Mar-19 16:00N 46°48' W 071°12'0 0.0 020 / 21029.2 2.8-4.1
2017-Mar-19 15:00N 46°48' W 071°12'0 0.0 010 / 11030.3 1.6-3.2
2017-Mar-19 14:00N 46°48' W 071°12'0 0.0 050 / 11030.6 -0.5-4.8
2017-Mar-19 13:00N 46°48' W 071°12'0 0.0 1030.7 -1.8-5.7
2017-Mar-19 12:00N 46°48' W 071°12'   020 / 41030.4 -5.4-8.2
Track history (hours):
 
Tides and Currents Weather Stations Pressure Air Temp Water Temp Dewpoint Dewpoint Depression Visibility Wind Speed Wind Dir Waves Ship Positions

Oceanographic research ship CCGS Louis S. St-Laurent (Canada)

Detailed information on ship capabilities available from ARCUS's ALIAS (Arctic Logistics Information and Support) project.

Last reported at 2017-Mar-29 12:00 UTC. Time now 2017-Mar-29 13:09 UTC.
Position N 46°48' W 071°12'.

Length 119.63 m; beam 24.38 m; draft 9.9 m.

MMSI: 316165000.

Wind from 110 at 1 knots

Barometer 1019.6 mb
Air temperature 1.1 ° C
Dewpoint -0.5 ° C

Date/timePositionNaut miles runAvg speedWind from/ knotsBaromVisibWave heightAir tempDewpointWater temp
2017-Mar-29 12:00N 46°48' W 071°12'0 0.0 110 / 11019.6 1.1-0.5
2017-Mar-29 11:00N 46°48' W 071°12'0 0.0 120 / 11019.7 1.0 0.1
2017-Mar-29 10:00N 46°48' W 071°12'0 0.0 330 / 11019.6 0.1-0.1
2017-Mar-29 09:00N 46°48' W 071°12'0 0.0 010 / 21019.3 1.2 0.2
2017-Mar-29 08:00N 46°48' W 071°12'0 0.0 030 / 31019.2 1.4 0.1
2017-Mar-29 07:00N 46°48' W 071°12'0 0.0 030 / 51019.1 0.4-0.4
2017-Mar-29 06:00N 46°48' W 071°12'0 0.0 020 / 11018.9 1.5-0.0
2017-Mar-29 05:00N 46°48' W 071°12'0 0.0 020 / 11018.8 2.0 0.2
2017-Mar-29 04:00N 46°48' W 071°12'0 0.0 020 / 11018.6 1.7 0.1
2017-Mar-29 03:00N 46°48' W 071°12'0 0.0 010 / 11018.5 2.0 0.1
2017-Mar-29 02:00N 46°48' W 071°12'0 0.0 030 / 21018.6 1.5-0.2
2017-Mar-29 01:00N 46°48' W 071°12'0 0.0 040 / 31018.2 1.3-0.1
2017-Mar-29 00:00N 46°48' W 071°12'0 0.0 030 / 31017.5 1.4-0.2
2017-Mar-28 23:00N 46°48' W 071°12'0 0.0 020 / 21016.9 1.7 0.4
2017-Mar-28 22:00N 46°48' W 071°12'0 0.0 040 / 31016.3 1.6 0.5
2017-Mar-28 21:00N 46°48' W 071°12'0 0.0 030 / 31015.8 1.5 0.8
2017-Mar-28 20:00N 46°48' W 071°12'0 0.0 030 / 31015.1 1.3 0.9
2017-Mar-28 19:00N 46°48' W 071°12'0 0.0 040 / 31015.0 1.1 0.6
2017-Mar-28 18:00N 46°48' W 071°12'0 0.0 040 / 41014.9 1.4 0.5
2017-Mar-28 17:00N 46°48' W 071°12'0 0.0 040 / 31015.0 1.6 0.6
2017-Mar-28 16:00N 46°48' W 071°12'0 0.0 040 / 41015.1 1.4 0.5
2017-Mar-28 15:00N 46°48' W 071°12'0 0.0 040 / 41015.3 1.6 0.5
2017-Mar-28 14:00N 46°48' W 071°12'0 0.0 040 / 41015.3 1.2 0.4
2017-Mar-28 13:00N 46°48' W 071°12'0 0.0 030 / 21015.4 1.5 0.5
2017-Mar-28 12:00N 46°48' W 071°12'0 0.0 020 / 21015.4 1.3 0.1
2017-Mar-28 11:00N 46°48' W 071°12'0 0.0 030 / 31015.3 0.8 0.1
2017-Mar-28 10:00N 46°48' W 071°12'0 0.0 040 / 31015.1 0.7-0.1
2017-Mar-28 09:00N 46°48' W 071°12'0 0.0 040 / 31015.3 0.7-0.2
2017-Mar-28 07:00N 46°48' W 071°12'0 0.0 030 / 21015.9 0.5-0.1
2017-Mar-28 06:00N 46°48' W 071°12'0 0.0 030 / 31016.3 0.4-0.2
2017-Mar-28 05:00N 46°48' W 071°12'0 0.0 030 / 21016.7 0.4-0.1
2017-Mar-28 04:00N 46°48' W 071°12'0 0.0 040 / 41016.9 0.1-0.0
2017-Mar-28 03:00N 46°48' W 071°12'0 0.0 040 / 31017.3 -0.0-0.1
2017-Mar-28 02:00N 46°48' W 071°12'0 0.0 040 / 31017.7 -0.0-0.1
2017-Mar-28 01:00N 46°48' W 071°12'0 0.0 040 / 41017.7 -0.1-0.1
2017-Mar-28 00:00N 46°48' W 071°12'0 0.0 040 / 31017.8 -0.1-0.2
2017-Mar-27 23:00N 46°48' W 071°12'0 0.0 030 / 31017.8 -0.1-0.2
2017-Mar-27 22:00N 46°48' W 071°12'0 0.0 030 / 31018.0 -0.0-0.1
2017-Mar-27 21:00N 46°48' W 071°12'0 0.0 040 / 41018.2 -0.1-0.2
2017-Mar-27 20:00N 46°48' W 071°12'0 0.0 040 / 31018.7 -0.2-0.3
2017-Mar-27 19:00N 46°48' W 071°12'0 0.0 030 / 31019.4 -0.1-0.6
2017-Mar-27 18:00N 46°48' W 071°12'0 0.0 030 / 41020.0 -0.2-1.2
2017-Mar-27 17:00N 46°48' W 071°12'0 0.0 030 / 31020.6 -0.1-1.2
2017-Mar-27 16:00N 46°48' W 071°12'0 0.0 030 / 31021.2 -0.5-1.5
2017-Mar-27 15:00N 46°48' W 071°12'0 0.0 030 / 21021.7 -0.5-1.2
2017-Mar-27 14:00N 46°48' W 071°12'0 0.0 020 / 21022.4 -0.4-1.1
2017-Mar-27 13:00N 46°48' W 071°12'0 0.0 030 / 31022.9 -0.7-1.7
2017-Mar-27 11:00N 46°48' W 071°12'0 0.0 010 / 21023.8 -0.9-2.5
2017-Mar-27 10:00N 46°48' W 071°12'0 0.0 030 / 41024.2 -1.7-3.2
2017-Mar-27 09:00N 46°48' W 071°12'0 0.0 040 / 41025.0 -2.1-3.6
2017-Mar-27 08:00N 46°48' W 071°12'0 0.0 020 / 31025.9 -2.0-2.7
2017-Mar-27 07:00N 46°48' W 071°12'0 0.0 030 / 31026.9 -1.9-3.4
2017-Mar-27 06:00N 46°48' W 071°12'0 0.0 050 / 21027.5 -0.3-7.4
2017-Mar-27 05:00N 46°48' W 071°12'0 0.0 110 / 51027.3 -0.9-7.0
2017-Mar-27 04:00N 46°48' W 071°12'0 0.0 040 / 31027.8 -0.5-5.6
2017-Mar-27 03:00N 46°48' W 071°12'0 0.0 030 / 31028.4 -0.7-6.8
2017-Mar-27 02:00N 46°48' W 071°12'0 0.0 030 / 31029.2 -0.7-6.7
2017-Mar-27 01:00N 46°48' W 071°12'0 0.0 020 / 21030.3 -0.8-8.0
2017-Mar-27 00:00N 46°48' W 071°12'0 0.0 020 / 31030.5 -1.5-7.5
2017-Mar-26 23:00N 46°48' W 071°12'0 0.0 040 / 41030.7 -1.7-8.2
2017-Mar-26 22:00N 46°48' W 071°12'0 0.0 040 / 41031.0 -1.1-7.2
2017-Mar-26 21:00N 46°48' W 071°12'0 0.0 030 / 21031.9 1.1-6.5
2017-Mar-26 20:00N 46°48' W 071°12'0 0.0 030 / 31032.3 1.0-7.4
2017-Mar-26 19:00N 46°48' W 071°12'0 0.0 010 / 21033.5 1.9-7.3
2017-Mar-26 18:00N 46°48' W 071°12'0 0.0 030 / 21034.4 1.4-9.2
2017-Mar-26 17:00N 46°48' W 071°12'0 0.0 040 / 21035.4 0.3-11.1
2017-Mar-26 16:00N 46°48' W 071°12'0 0.0 040 / 31036.3 -1.3-11.3
2017-Mar-26 15:00N 46°48' W 071°12'0 0.0 010 / 11037.3 -1.1-10.8
2017-Mar-26 14:00N 46°48' W 071°12'0 0.0 070 / 11037.7 -2.6-11.5
2017-Mar-26 13:00N 46°48' W 071°12'0 0.0 070 / 11037.7 -3.6-11.7
2017-Mar-26 12:00N 46°48' W 071°12'0 0.0 020 / 41037.7 -6.3-13.3
2017-Mar-26 11:00N 46°48' W 071°12'0 0.0 020 / 51036.9 -6.8-14.1
2017-Mar-26 10:00N 46°48' W 071°12'0 0.0 030 / 31036.5 -5.7-13.7
2017-Mar-26 09:00N 46°48' W 071°12'0 0.0 010 / 31035.6 -4.6-14.7
2017-Mar-26 08:00N 46°48' W 071°12'0 0.0 020 / 41035.5 -5.0-15.8
2017-Mar-26 07:00N 46°48' W 071°12'0 0.0 1034.8 -4.8-13.8
2017-Mar-26 06:00N 46°48' W 071°12'0 0.0 020 / 61034.4 -4.7-14.8
2017-Mar-26 05:00N 46°48' W 071°12'0 0.0 030 / 31034.5 -2.6-12.9
2017-Mar-26 04:00N 46°48' W 071°12'0 0.0 030 / 61034.1 -2.8-14.3
2017-Mar-26 03:00N 46°48' W 071°12'0 0.0 010 / 101033.7 -2.3-14.4
2017-Mar-26 02:00N 46°48' W 071°12'0 0.0 030 / 31033.3 -0.3-12.3
2017-Mar-26 01:00N 46°48' W 071°12'0 0.0 060 / 11032.3 0.3-12.4
2017-Mar-26 00:00N 46°48' W 071°12'0 0.0 020 / 31031.1 0.9-10.3
2017-Mar-25 23:00N 46°48' W 071°12'0 0.0 110 / 11029.6 1.2-9.9
2017-Mar-25 22:00N 46°48' W 071°12'0 0.0 030 / 11028.3 3.0-5.8
2017-Mar-25 21:00N 46°48' W 071°12'0 0.0 030 / 31027.5 2.6-7.2
2017-Mar-25 20:00N 46°48' W 071°12'0 0.0 040 / 31027.3 3.0-8.2
2017-Mar-25 19:00N 46°48' W 071°12'0 0.0 030 / 21027.1 2.8-7.0
2017-Mar-25 18:00N 46°48' W 071°12'0 0.0 030 / 31027.5 2.4-9.0
2017-Mar-25 17:00N 46°48' W 071°12'0 0.0 030 / 21027.9 3.0-7.5
2017-Mar-25 16:00N 46°48' W 071°12'0 0.0 030 / 11028.0 3.3-7.2
2017-Mar-25 15:00N 46°48' W 071°12'0 0.0 040 / 21027.8 2.3-10.4
2017-Mar-25 13:00N 46°48' W 071°12'0 0.0 340 / 71026.0 -0.9-9.7
2017-Mar-25 12:00N 46°48' W 071°12'0 0.0 340 / 91024.8 -1.0-8.3
2017-Mar-25 11:00N 46°48' W 071°12'0 0.0 350 / 121023.3 -0.4-6.8
2017-Mar-25 10:00N 46°48' W 071°12'0 0.0 250 / 51021.6 -0.7-2.2
2017-Mar-25 09:00N 46°48' W 071°12'0 0.0 240 / 71020.5 -0.6-2.2
2017-Mar-25 08:00N 46°48' W 071°12'0 0.0 240 / 81019.9 -0.5-2.0
2017-Mar-25 07:00N 46°48' W 071°12'0 0.0 250 / 61019.5 -0.4-2.0
2017-Mar-25 06:00N 46°48' W 071°12'0 0.0 240 / 61019.2 -0.4-2.1
2017-Mar-25 05:00N 46°48' W 071°12'0 0.0 240 / 61019.0 -0.4-2.2
2017-Mar-25 04:00N 46°48' W 071°12'0 0.0 230 / 41018.7 -0.4-2.4
2017-Mar-25 03:00N 46°48' W 071°12'0 0.0 260 / 41018.7 -0.5-2.2
2017-Mar-25 02:00N 46°48' W 071°12'0 0.0 240 / 41018.5 -0.6-2.0
2017-Mar-25 01:00N 46°48' W 071°12'0 0.0 230 / 31018.1 -0.6-2.0
2017-Mar-25 00:00N 46°48' W 071°12'0 0.0 240 / 21017.9 -0.7-2.2
2017-Mar-24 23:00N 46°48' W 071°12'0 0.0 250 / 21017.7 -0.7-2.7
2017-Mar-24 22:00N 46°48' W 071°12'0 0.0 240 / 11017.7 -0.7-2.8
2017-Mar-24 21:00N 46°48' W 071°12'0 0.0 320 / 11018.0 -0.4-2.2
2017-Mar-24 20:00N 46°48' W 071°12'0 0.0 020 / 31018.2 -0.4-2.9
2017-Mar-24 18:00N 46°48' W 071°12'0 0.0 010 / 11021.0 -1.3-3.5
2017-Mar-24 17:00N 46°48' W 071°12'0 0.0 1021.9 -1.8-4.4
2017-Mar-24 16:00N 46°48' W 071°12'0 0.0 340 / 41022.3 -2.5-5.0
2017-Mar-24 15:00N 46°48' W 071°12'0 0.0 330 / 31024.1 -3.1-6.2
2017-Mar-24 14:00N 46°48' W 071°12'0 0.0 250 / 21025.0 -2.8-10.7
2017-Mar-24 12:00N 46°48' W 071°12'0 0.0 300 / 11027.1 -3.5-9.7
2017-Mar-24 11:00N 46°48' W 071°12'0 0.0 270 / 11027.0 -4.5-10.7
2017-Mar-24 10:00N 46°48' W 071°12'0 0.0 240 / 31027.6 -4.9-12.0
2017-Mar-24 09:00N 46°48' W 071°12'0 0.0 240 / 21028.5 -4.7-10.9
2017-Mar-24 08:00N 46°48' W 071°12'0 0.0 230 / 41029.1 -5.0-12.0
2017-Mar-24 07:00N 46°48' W 071°12'0 0.0 280 / 21028.8 -5.2-13.3
2017-Mar-24 06:00N 46°48' W 071°12'0 0.0 180 / 41028.8 -5.3-13.4
2017-Mar-24 05:00N 46°48' W 071°12'0 0.0 220 / 31030.0 -4.1-13.3
2017-Mar-24 04:00N 46°48' W 071°12'0 0.0 170 / 51030.7 -5.2-14.4
2017-Mar-24 03:00N 46°48' W 071°12'0 0.0 180 / 61031.2 -4.9-14.8
2017-Mar-24 02:00N 46°48' W 071°12'0 0.0 220 / 61031.0 -3.9-14.3
2017-Mar-24 01:00N 46°48' W 071°12'0 0.0 250 / 81030.8 -3.4-13.7
2017-Mar-24 00:00N 46°48' W 071°12'0 0.0 260 / 71030.5 -2.2-16.1
2017-Mar-23 23:00N 46°48' W 071°12'0 0.0 270 / 81029.9 -2.1-15.7
2017-Mar-23 22:00N 46°48' W 071°12'0 0.0 260 / 71029.7 -1.5-16.6
2017-Mar-23 21:00N 46°48' W 071°12'0 0.0 270 / 81029.7 -1.9-17.0
2017-Mar-23 20:00N 46°48' W 071°12'0 0.0 300 / 101029.6 -2.7-17.6
2017-Mar-23 19:00N 46°48' W 071°12'0 0.0 280 / 101029.5 -3.3-18.9
2017-Mar-23 18:00N 46°48' W 071°12'0 0.0 250 / 91029.7 -4.4-18.5
2017-Mar-23 17:00N 46°48' W 071°12'0 0.0 250 / 91030.2 -5.4-17.3
2017-Mar-23 16:00N 46°48' W 071°12'0 0.0 220 / 111030.5 -6.7-18.0
2017-Mar-23 15:00N 46°48' W 071°12'0 0.0 220 / 91031.1 -8.9-17.7
2017-Mar-23 14:00N 46°48' W 071°12'0 0.0 240 / 91031.4 -10.3-18.5
2017-Mar-23 13:00N 46°48' W 071°12'0 0.0 240 / 91031.1 -11.0-18.7
2017-Mar-23 12:00N 46°48' W 071°12'0 0.0 260 / 71030.4 -11.8-18.2
2017-Mar-23 11:00N 46°48' W 071°12'0 0.0 240 / 81029.9 -12.1-18.7
2017-Mar-23 10:00N 46°48' W 071°12'0 0.0 280 / 81029.1 -11.4-19.0
2017-Mar-23 09:00N 46°48' W 071°12'0 0.0 280 / 81028.3 -11.1-18.9
2017-Mar-23 08:00N 46°48' W 071°12'0 0.0 270 / 61027.9 -10.8-19.2
2017-Mar-23 07:00N 46°48' W 071°12'0 0.0 300 / 71027.7 -10.4-19.3
2017-Mar-23 06:00N 46°48' W 071°12'0 0.0 320 / 101027.3 -10.0-18.5
2017-Mar-23 05:00N 46°48' W 071°12'0 0.0 300 / 121027.1 -9.9-19.5
2017-Mar-23 04:00N 46°48' W 071°12'0 0.0 290 / 91027.2 -9.8-19.8
2017-Mar-23 03:00N 46°48' W 071°12'0 0.0 300 / 81026.9 -9.4-19.3
2017-Mar-23 02:00N 46°48' W 071°12'0 0.0 280 / 71026.9 -9.2-19.9
2017-Mar-23 01:00N 46°48' W 071°12'0 0.0 300 / 61026.3 -8.9-19.1
2017-Mar-23 00:00N 46°48' W 071°12'0 0.0 320 / 61025.3 -8.5-19.0
2017-Mar-22 23:00N 46°48' W 071°12'0 0.0 330 / 91023.9 -7.9-19.3
2017-Mar-22 22:00N 46°48' W 071°12'0 0.0 330 / 101022.9 -6.9-18.2
2017-Mar-22 21:00N 46°48' W 071°12'0 0.0 330 / 121021.7 -6.8-18.9
2017-Mar-22 20:00N 46°48' W 071°12'0 0.0 320 / 91020.9 -6.7-18.3
2017-Mar-22 19:00N 46°48' W 071°12'0 0.0 320 / 121020.0 -6.8-19.0
2017-Mar-22 18:00N 46°48' W 071°12'0 0.0 310 / 121019.4 -7.2-18.0
2017-Mar-22 17:00N 46°48' W 071°12'0 0.0 320 / 101019.0 -7.5-18.2
2017-Mar-22 16:00N 46°48' W 071°12'0 0.0 330 / 131018.7 -8.3-18.3
2017-Mar-22 15:00N 46°48' W 071°12'0 0.0 350 / 121017.9 -9.3-17.3
2017-Mar-22 14:00N 46°48' W 071°12'0 0.0 340 / 111016.7 -10.2-16.0
2017-Mar-22 13:00N 46°48' W 071°12'0 0.0 340 / 111015.2 -10.2-14.6
2017-Mar-22 12:00N 46°48' W 071°12'0 0.0 330 / 91013.5 -10.5-12.6
2017-Mar-22 11:00N 46°48' W 071°12'0 0.0 320 / 71011.6 -9.9-11.8
2017-Mar-22 10:00N 46°48' W 071°12'0 0.0 330 / 71009.2 -8.6-10.1
2017-Mar-22 09:00N 46°48' W 071°12'0 0.0 360 / 171006.0 -6.2-10.0
2017-Mar-22 08:00N 46°48' W 071°12'0 0.0 360 / 121004.9 -3.2-8.7
2017-Mar-22 07:00N 46°48' W 071°12'0 0.0 290 / 41004.3 1.1 0.4
2017-Mar-22 06:00N 46°48' W 071°12'0 0.0 210 / 41004.9 1.6-0.2
2017-Mar-22 05:00N 46°48' W 071°12'0 0.0 220 / 41005.5 1.1-0.7
2017-Mar-22 04:00N 46°48' W 071°12'0 0.0 220 / 31005.7 1.7-0.9
2017-Mar-22 03:00N 46°48' W 071°12'0 0.0 230 / 61006.7 2.5-1.0
2017-Mar-22 02:00N 46°48' W 071°12'0 0.0 230 / 71007.0 3.3-1.4
2017-Mar-22 01:00N 46°48' W 071°12'0 0.0 240 / 61007.2 4.2-2.6
2017-Mar-22 00:00N 46°48' W 071°12'0 0.0 230 / 41007.0 4.3-4.2
2017-Mar-21 23:00N 46°48' W 071°12'0 0.0 070 / 11006.4 5.3-3.4
2017-Mar-21 22:00N 46°48' W 071°12'0 0.0 110 / 11006.4 5.2-5.7
2017-Mar-21 21:00N 46°48' W 071°12'0 0.0 040 / 11006.7 7.9-6.6
2017-Mar-21 20:00N 46°48' W 071°12'0 0.0 030 / 21007.2 7.3-4.2
2017-Mar-21 19:00N 46°48' W 071°12'0 0.0 040 / 21008.1 6.7-4.8
2017-Mar-21 18:00N 46°48' W 071°12'0 0.0 070 / 11009.0 7.4-4.0
2017-Mar-21 17:00N 46°48' W 071°12'0 0.0 030 / 21009.8 7.0-4.1
2017-Mar-21 16:00N 46°48' W 071°12'0 0.0 100 / 11010.5 5.9-1.6
2017-Mar-21 15:00N 46°48' W 071°12'0 0.0 090 / 11011.4 5.4-1.4
2017-Mar-21 14:00N 46°48' W 071°12'0 0.0 100 / 11011.9 4.3-1.2
2017-Mar-21 12:00N 46°48' W 071°12'0 0.0 240 / 51012.0 2.3-3.5
2017-Mar-21 11:00N 46°48' W 071°12'0 0.0 230 / 81011.9 1.7-3.8
2017-Mar-21 10:00N 46°48' W 071°12'0 0.0 240 / 71012.0 1.7-3.9
2017-Mar-21 09:00N 46°48' W 071°12'0 0.0 220 / 61011.9 2.0-4.5
2017-Mar-21 08:00N 46°48' W 071°12'0 0.0 220 / 71012.1 2.0-4.3
2017-Mar-21 07:00N 46°48' W 071°12'0 0.0 220 / 51012.4 2.6-4.9
2017-Mar-21 06:00N 46°48' W 071°12'0 0.0 220 / 71012.7 2.2-4.8
2017-Mar-21 05:00N 46°48' W 071°12'0 0.0 230 / 61013.1 2.8-5.4
2017-Mar-21 04:00N 46°48' W 071°12'0 0.0 250 / 41013.5 3.1-5.7
2017-Mar-21 03:00N 46°48' W 071°12'0 0.0 230 / 61014.0 3.3-6.2
2017-Mar-21 02:00N 46°48' W 071°12'0 0.0 230 / 71014.4 3.6-6.8
2017-Mar-21 01:00N 46°48' W 071°12'0 0.0 230 / 61014.7 4.1-6.9
2017-Mar-21 00:00N 46°48' W 071°12'0 0.0 230 / 51015.1 4.5-7.2
2017-Mar-20 23:00N 46°48' W 071°12'0 0.0 240 / 61015.4 4.8-6.5
2017-Mar-20 22:00N 46°48' W 071°12'0 0.0 230 / 31015.8 5.2-5.6
2017-Mar-20 21:00N 46°48' W 071°12'0 0.0 080 / 11016.5 2.8-2.0
2017-Mar-20 20:00N 46°48' W 071°12'0 0.0 040 / 21017.4 3.3-2.5
2017-Mar-20 19:00N 46°48' W 071°12'0 0.0 040 / 21018.2 3.2-2.4
2017-Mar-20 17:00N 46°48' W 071°12'0 0.0 030 / 21020.4 3.4-2.7
2017-Mar-20 16:00N 46°48' W 071°12'0 0.0 050 / 11021.5 2.9-3.4
2017-Mar-20 15:00N 46°48' W 071°12'0 0.0 040 / 11022.5 1.8-4.8
2017-Mar-20 14:00N 46°48' W 071°12'0 0.0 130 / 11022.9 0.3-6.5
2017-Mar-20 13:00N 46°48' W 071°12'0 0.0 120 / 11023.3 -1.3-7.2
2017-Mar-20 12:00N 46°48' W 071°12'0 0.0 320 / 11023.4 -2.1-6.9
2017-Mar-20 11:00N 46°48' W 071°12'0 0.0 230 / 31023.2 -4.5-6.9
2017-Mar-20 10:00N 46°48' W 071°12'0 0.0 290 / 11023.1 -3.9-5.7
2017-Mar-20 08:00N 46°48' W 071°12'0 0.0 1023.0 -3.2-5.6
2017-Mar-20 07:00N 46°48' W 071°12'0 0.0 270 / 11023.2 -3.3-4.5
2017-Mar-20 06:00N 46°48' W 071°12'0 0.0 330 / 11023.5 -2.3-5.4
2017-Mar-20 05:00N 46°48' W 071°12'0 0.0 1024.1 -1.9-5.4
2017-Mar-20 04:00N 46°48' W 071°12'0 0.0 330 / 11024.6 -1.1-4.3
2017-Mar-20 03:00N 46°48' W 071°12'0 0.0 360 / 11024.9 -0.3-3.2
2017-Mar-20 02:00N 46°48' W 071°12'0 0.0 110 / 11025.1 -0.5-3.7
2017-Mar-20 01:00N 46°48' W 071°12'0 0.0 070 / 11025.0 0.4-3.9
2017-Mar-20 00:00N 46°48' W 071°12'0 0.0 110 / 11024.7 1.3-6.6
2017-Mar-19 23:00N 46°48' W 071°12'0 0.0 040 / 11025.0 2.8-2.7
2017-Mar-19 22:00N 46°48' W 071°12'0 0.0 030 / 11025.0 5.0-5.1
2017-Mar-19 21:00N 46°48' W 071°12'0 0.0 050 / 21024.9 4.5-2.6
2017-Mar-19 20:00N 46°48' W 071°12'0 0.0 080 / 11025.4 4.8-2.0
2017-Mar-19 19:00N 46°48' W 071°12'0 0.0 020 / 11026.0 5.8-3.7
2017-Mar-19 18:00N 46°48' W 071°12'0 0.0 360 / 21026.9 3.8-3.1
2017-Mar-19 17:00N 46°48' W 071°12'0 0.0 1028.3 3.8-3.4
2017-Mar-19 16:00N 46°48' W 071°12'0 0.0 020 / 21029.2 2.8-4.1
2017-Mar-19 15:00N 46°48' W 071°12'0 0.0 010 / 11030.3 1.6-3.2
2017-Mar-19 14:00N 46°48' W 071°12'0 0.0 050 / 11030.6 -0.5-4.8
2017-Mar-19 13:00N 46°48' W 071°12'0 0.0 1030.7 -1.8-5.7
2017-Mar-19 12:00N 46°48' W 071°12'   020 / 41030.4 -5.4-8.2

Dump ship's entire track history